sensor_id;sensor_type;location;lat;lon;timestamp;temperature;humidity
18694;DHT22;9477;51.414;10.362;2022-12-07T00:01:08;7.10;83.90
18694;DHT22;9477;51.414;10.362;2022-12-07T00:03:11;7.00;83.60
18694;DHT22;9477;51.414;10.362;2022-12-07T00:05:14;7.00;83.60
18694;DHT22;9477;51.414;10.362;2022-12-07T00:07:16;7.10;83.70
18694;DHT22;9477;51.414;10.362;2022-12-07T00:09:25;7.10;83.60
18694;DHT22;9477;51.414;10.362;2022-12-07T00:11:29;7.10;83.70
18694;DHT22;9477;51.414;10.362;2022-12-07T00:13:33;7.10;83.50
18694;DHT22;9477;51.414;10.362;2022-12-07T00:15:36;7.10;83.30
18694;DHT22;9477;51.414;10.362;2022-12-07T00:17:39;7.10;83.50
18694;DHT22;9477;51.414;10.362;2022-12-07T00:19:42;7.10;83.50
18694;DHT22;9477;51.414;10.362;2022-12-07T00:21:45;7.10;83.50
18694;DHT22;9477;51.414;10.362;2022-12-07T00:23:49;7.10;83.40
18694;DHT22;9477;51.414;10.362;2022-12-07T00:25:52;7.10;83.30
18694;DHT22;9477;51.414;10.362;2022-12-07T00:27:57;7.10;83.70
18694;DHT22;9477;51.414;10.362;2022-12-07T00:29:59;7.10;83.60
18694;DHT22;9477;51.414;10.362;2022-12-07T00:32:03;7.20;83.80
18694;DHT22;9477;51.414;10.362;2022-12-07T00:34:07;7.20;83.70
18694;DHT22;9477;51.414;10.362;2022-12-07T00:36:12;7.20;83.70
18694;DHT22;9477;51.414;10.362;2022-12-07T00:38:15;7.30;83.70
18694;DHT22;9477;51.414;10.362;2022-12-07T00:40:17;7.30;83.70
18694;DHT22;9477;51.414;10.362;2022-12-07T00:42:20;7.30;83.60
18694;DHT22;9477;51.414;10.362;2022-12-07T00:44:24;7.30;83.50
18694;DHT22;9477;51.414;10.362;2022-12-07T00:46:28;7.30;83.30
18694;DHT22;9477;51.414;10.362;2022-12-07T00:48:32;7.30;83.50
18694;DHT22;9477;51.414;10.362;2022-12-07T00:50:34;7.30;83.70
18694;DHT22;9477;51.414;10.362;2022-12-07T00:52:37;7.30;83.50
18694;DHT22;9477;51.414;10.362;2022-12-07T00:54:40;7.30;83.40
18694;DHT22;9477;51.414;10.362;2022-12-07T00:56:43;7.30;83.50
18694;DHT22;9477;51.414;10.362;2022-12-07T00:58:50;7.30;83.30
18694;DHT22;9477;51.414;10.362;2022-12-07T01:00:59;7.30;83.20
18694;DHT22;9477;51.414;10.362;2022-12-07T01:03:03;7.20;83.30
18694;DHT22;9477;51.414;10.362;2022-12-07T01:05:07;7.20;83.30
18694;DHT22;9477;51.414;10.362;2022-12-07T01:07:10;7.30;83.60
18694;DHT22;9477;51.414;10.362;2022-12-07T01:09:13;7.30;83.60
18694;DHT22;9477;51.414;10.362;2022-12-07T01:11:18;7.30;83.40
18694;DHT22;9477;51.414;10.362;2022-12-07T01:13:21;7.30;83.20
18694;DHT22;9477;51.414;10.362;2022-12-07T01:15:24;7.30;83.40
18694;DHT22;9477;51.414;10.362;2022-12-07T01:17:29;7.20;83.00
18694;DHT22;9477;51.414;10.362;2022-12-07T01:19:31;7.10;83.30
18694;DHT22;9477;51.414;10.362;2022-12-07T01:21:35;7.10;83.60
18694;DHT22;9477;51.414;10.362;2022-12-07T01:23:39;7.20;83.60
18694;DHT22;9477;51.414;10.362;2022-12-07T01:25:42;7.20;83.50
18694;DHT22;9477;51.414;10.362;2022-12-07T01:27:46;7.20;83.50
18694;DHT22;9477;51.414;10.362;2022-12-07T01:29:50;7.20;83.40
18694;DHT22;9477;51.414;10.362;2022-12-07T01:31:53;7.20;83.50
18694;DHT22;9477;51.414;10.362;2022-12-07T01:33:59;7.20;83.40
18694;DHT22;9477;51.414;10.362;2022-12-07T01:36:03;7.20;83.40
18694;DHT22;9477;51.414;10.362;2022-12-07T01:38:06;7.20;83.30
18694;DHT22;9477;51.414;10.362;2022-12-07T01:40:10;7.10;83.10
18694;DHT22;9477;51.414;10.362;2022-12-07T01:42:13;7.10;83.20
18694;DHT22;9477;51.414;10.362;2022-12-07T01:44:19;7.10;83.50
18694;DHT22;9477;51.414;10.362;2022-12-07T01:46:22;7.20;83.50
18694;DHT22;9477;51.414;10.362;2022-12-07T01:48:29;7.20;83.40
18694;DHT22;9477;51.414;10.362;2022-12-07T01:50:35;7.20;83.30
18694;DHT22;9477;51.414;10.362;2022-12-07T01:52:40;7.20;83.20
18694;DHT22;9477;51.414;10.362;2022-12-07T01:54:44;7.20;83.30
18694;DHT22;9477;51.414;10.362;2022-12-07T01:56:50;7.10;83.00
18694;DHT22;9477;51.414;10.362;2022-12-07T01:58:55;7.20;83.30
18694;DHT22;9477;51.414;10.362;2022-12-07T02:00:58;7.20;84.00
18694;DHT22;9477;51.414;10.362;2022-12-07T02:03:07;7.20;83.20
18694;DHT22;9477;51.414;10.362;2022-12-07T02:05:11;7.20;83.30
18694;DHT22;9477;51.414;10.362;2022-12-07T02:07:16;7.20;83.30
18694;DHT22;9477;51.414;10.362;2022-12-07T02:09:19;7.30;83.50
18694;DHT22;9477;51.414;10.362;2022-12-07T02:11:22;7.20;83.00
18694;DHT22;9477;51.414;10.362;2022-12-07T02:13:27;7.10;83.30
18694;DHT22;9477;51.414;10.362;2022-12-07T02:15:41;7.00;83.00
18694;DHT22;9477;51.414;10.362;2022-12-07T02:17:50;7.00;83.30
18694;DHT22;9477;51.414;10.362;2022-12-07T02:20:07;7.10;83.40
18694;DHT22;9477;51.414;10.362;2022-12-07T02:22:29;7.10;83.60
18694;DHT22;9477;51.414;10.362;2022-12-07T02:24:48;7.20;83.60
18694;DHT22;9477;51.414;10.362;2022-12-07T02:27:14;7.20;83.30
18694;DHT22;9477;51.414;10.362;2022-12-07T02:29:25;7.20;83.40
18694;DHT22;9477;51.414;10.362;2022-12-07T02:31:30;7.20;83.30
18694;DHT22;9477;51.414;10.362;2022-12-07T02:33:36;7.20;83.10
18694;DHT22;9477;51.414;10.362;2022-12-07T02:35:41;7.20;83.20
18694;DHT22;9477;51.414;10.362;2022-12-07T02:37:53;7.20;83.20
18694;DHT22;9477;51.414;10.362;2022-12-07T02:40:01;7.20;82.90
18694;DHT22;9477;51.414;10.362;2022-12-07T02:42:11;7.00;82.80
18694;DHT22;9477;51.414;10.362;2022-12-07T02:44:18;6.90;83.30
18694;DHT22;9477;51.414;10.362;2022-12-07T02:46:27;6.90;83.50
18694;DHT22;9477;51.414;10.362;2022-12-07T02:48:32;6.90;83.50
18694;DHT22;9477;51.414;10.362;2022-12-07T02:50:35;6.80;83.50
18694;DHT22;9477;51.414;10.362;2022-12-07T02:52:38;6.50;83.60
18694;DHT22;9477;51.414;10.362;2022-12-07T02:54:41;6.60;84.20
18694;DHT22;9477;51.414;10.362;2022-12-07T02:56:48;6.60;84.40
18694;DHT22;9477;51.414;10.362;2022-12-07T02:58:59;6.50;84.60
18694;DHT22;9477;51.414;10.362;2022-12-07T03:01:08;6.50;84.80
18694;DHT22;9477;51.414;10.362;2022-12-07T03:03:17;6.50;85.20
18694;DHT22;9477;51.414;10.362;2022-12-07T03:05:36;6.60;85.30
18694;DHT22;9477;51.414;10.362;2022-12-07T03:07:48;6.70;85.50
18694;DHT22;9477;51.414;10.362;2022-12-07T03:10:00;6.60;85.00
18694;DHT22;9477;51.414;10.362;2022-12-07T03:12:09;6.60;85.10
18694;DHT22;9477;51.414;10.362;2022-12-07T03:14:18;6.70;85.60
18694;DHT22;9477;51.414;10.362;2022-12-07T03:16:26;6.20;85.10
18694;DHT22;9477;51.414;10.362;2022-12-07T03:18:35;6.30;85.90
18694;DHT22;9477;51.414;10.362;2022-12-07T03:20:41;6.40;86.30
18694;DHT22;9477;51.414;10.362;2022-12-07T03:22:47;6.40;86.50
18694;DHT22;9477;51.414;10.362;2022-12-07T03:24:52;6.30;86.80
18694;DHT22;9477;51.414;10.362;2022-12-07T03:27:01;6.40;87.10
18694;DHT22;9477;51.414;10.362;2022-12-07T03:29:09;6.50;86.60
18694;DHT22;9477;51.414;10.362;2022-12-07T03:31:17;6.50;86.50
18694;DHT22;9477;51.414;10.362;2022-12-07T03:33:24;6.50;86.90
18694;DHT22;9477;51.414;10.362;2022-12-07T03:35:33;6.30;86.70
18694;DHT22;9477;51.414;10.362;2022-12-07T03:37:41;6.20;86.90
18694;DHT22;9477;51.414;10.362;2022-12-07T03:39:49;6.50;87.60
18694;DHT22;9477;51.414;10.362;2022-12-07T03:42:00;6.60;87.40
18694;DHT22;9477;51.414;10.362;2022-12-07T03:44:05;6.50;87.00
18694;DHT22;9477;51.414;10.362;2022-12-07T03:46:18;6.70;87.40
18694;DHT22;9477;51.414;10.362;2022-12-07T03:48:26;6.60;86.80
18694;DHT22;9477;51.414;10.362;2022-12-07T03:50:38;6.70;87.30
18694;DHT22;9477;51.414;10.362;2022-12-07T03:52:47;6.60;87.10
18694;DHT22;9477;51.414;10.362;2022-12-07T03:54:56;6.30;87.30
18694;DHT22;9477;51.414;10.362;2022-12-07T03:57:01;6.30;88.00
18694;DHT22;9477;51.414;10.362;2022-12-07T03:59:05;6.00;88.30
18694;DHT22;9477;51.414;10.362;2022-12-07T04:01:10;6.10;88.90
18694;DHT22;9477;51.414;10.362;2022-12-07T04:03:13;6.20;89.20
18694;DHT22;9477;51.414;10.362;2022-12-07T04:05:16;6.10;88.90
18694;DHT22;9477;51.414;10.362;2022-12-07T04:07:21;6.30;89.20
18694;DHT22;9477;51.414;10.362;2022-12-07T04:09:24;6.50;89.60
18694;DHT22;9477;51.414;10.362;2022-12-07T04:11:27;6.60;88.90
18694;DHT22;9477;51.414;10.362;2022-12-07T04:13:30;6.70;89.00
18694;DHT22;9477;51.414;10.362;2022-12-07T04:15:52;6.90;88.80
18694;DHT22;9477;51.414;10.362;2022-12-07T04:17:55;6.70;87.80
18694;DHT22;9477;51.414;10.362;2022-12-07T04:19:58;7.00;88.40
18694;DHT22;9477;51.414;10.362;2022-12-07T04:22:03;7.10;88.20
18694;DHT22;9477;51.414;10.362;2022-12-07T04:24:08;6.80;87.30
18694;DHT22;9477;51.414;10.362;2022-12-07T04:26:11;6.80;87.40
18694;DHT22;9477;51.414;10.362;2022-12-07T04:28:14;6.70;87.90
18694;DHT22;9477;51.414;10.362;2022-12-07T04:30:17;6.50;88.40
18694;DHT22;9477;51.414;10.362;2022-12-07T04:32:20;6.40;89.00
18694;DHT22;9477;51.414;10.362;2022-12-07T04:34:23;6.50;89.10
18694;DHT22;9477;51.414;10.362;2022-12-07T04:36:26;6.50;88.90
18694;DHT22;9477;51.414;10.362;2022-12-07T04:38:29;6.40;88.70
18694;DHT22;9477;51.414;10.362;2022-12-07T04:40:33;6.30;88.90
18694;DHT22;9477;51.414;10.362;2022-12-07T04:42:36;6.30;89.20
18694;DHT22;9477;51.414;10.362;2022-12-07T04:44:39;6.50;89.50
18694;DHT22;9477;51.414;10.362;2022-12-07T04:46:43;5.80;88.60
18694;DHT22;9477;51.414;10.362;2022-12-07T04:48:46;6.00;89.40
18694;DHT22;9477;51.414;10.362;2022-12-07T04:50:49;6.20;89.70
18694;DHT22;9477;51.414;10.362;2022-12-07T04:52:52;6.20;89.80
18694;DHT22;9477;51.414;10.362;2022-12-07T04:54:54;6.40;89.90
18694;DHT22;9477;51.414;10.362;2022-12-07T04:56:59;6.60;89.90
18694;DHT22;9477;51.414;10.362;2022-12-07T04:59:03;6.50;89.50
18694;DHT22;9477;51.414;10.362;2022-12-07T05:01:06;6.70;89.60
18694;DHT22;9477;51.414;10.362;2022-12-07T05:03:09;6.50;88.50
18694;DHT22;9477;51.414;10.362;2022-12-07T05:05:11;6.10;88.40
18694;DHT22;9477;51.414;10.362;2022-12-07T05:07:14;6.30;89.00
18694;DHT22;9477;51.414;10.362;2022-12-07T05:09:17;6.40;89.40
18694;DHT22;9477;51.414;10.362;2022-12-07T05:11:20;6.40;89.30
18694;DHT22;9477;51.414;10.362;2022-12-07T05:13:43;6.50;89.50
18694;DHT22;9477;51.414;10.362;2022-12-07T05:15:46;6.50;89.20
18694;DHT22;9477;51.414;10.362;2022-12-07T05:17:49;6.20;88.70
18694;DHT22;9477;51.414;10.362;2022-12-07T05:19:53;6.10;88.90
18694;DHT22;9477;51.414;10.362;2022-12-07T05:21:56;6.20;90.10
18694;DHT22;9477;51.414;10.362;2022-12-07T05:24:00;6.20;89.50
18694;DHT22;9477;51.414;10.362;2022-12-07T05:26:03;6.10;89.30
18694;DHT22;9477;51.414;10.362;2022-12-07T05:28:05;6.10;89.20
18694;DHT22;9477;51.414;10.362;2022-12-07T05:30:11;6.40;89.90
18694;DHT22;9477;51.414;10.362;2022-12-07T05:32:14;6.50;89.10
18694;DHT22;9477;51.414;10.362;2022-12-07T05:34:16;6.50;88.90
18694;DHT22;9477;51.414;10.362;2022-12-07T05:36:19;6.50;88.60
18694;DHT22;9477;51.414;10.362;2022-12-07T05:38:22;6.70;89.10
18694;DHT22;9477;51.414;10.362;2022-12-07T05:40:26;6.80;88.90
18694;DHT22;9477;51.414;10.362;2022-12-07T05:42:29;7.00;89.20
18694;DHT22;9477;51.414;10.362;2022-12-07T05:44:32;7.30;89.00
18694;DHT22;9477;51.414;10.362;2022-12-07T05:46:36;7.20;87.70
18694;DHT22;9477;51.414;10.362;2022-12-07T05:48:39;7.20;87.50
18694;DHT22;9477;51.414;10.362;2022-12-07T05:50:42;7.10;87.70
18694;DHT22;9477;51.414;10.362;2022-12-07T05:52:44;7.10;88.20
18694;DHT22;9477;51.414;10.362;2022-12-07T05:54:47;7.30;88.20
18694;DHT22;9477;51.414;10.362;2022-12-07T05:56:50;7.30;87.70
18694;DHT22;9477;51.414;10.362;2022-12-07T05:58:53;6.90;86.70
18694;DHT22;9477;51.414;10.362;2022-12-07T06:01:14;7.00;87.70
18694;DHT22;9477;51.414;10.362;2022-12-07T06:03:18;7.10;87.90
18694;DHT22;9477;51.414;10.362;2022-12-07T06:05:21;7.10;87.60
18694;DHT22;9477;51.414;10.362;2022-12-07T06:07:24;7.00;87.30
18694;DHT22;9477;51.414;10.362;2022-12-07T06:09:28;7.10;87.30
18694;DHT22;9477;51.414;10.362;2022-12-07T06:11:31;7.10;87.30
18694;DHT22;9477;51.414;10.362;2022-12-07T06:13:51;6.70;87.10
18694;DHT22;9477;51.414;10.362;2022-12-07T06:15:54;6.70;87.50
18694;DHT22;9477;51.414;10.362;2022-12-07T06:17:57;6.50;87.40
18694;DHT22;9477;51.414;10.362;2022-12-07T06:20:01;6.60;88.10
18694;DHT22;9477;51.414;10.362;2022-12-07T06:22:06;6.70;88.50
18694;DHT22;9477;51.414;10.362;2022-12-07T06:24:10;6.60;87.80
18694;DHT22;9477;51.414;10.362;2022-12-07T06:26:13;6.60;88.00
18694;DHT22;9477;51.414;10.362;2022-12-07T06:28:16;6.60;88.20
18694;DHT22;9477;51.414;10.362;2022-12-07T06:30:19;6.20;87.90
18694;DHT22;9477;51.414;10.362;2022-12-07T06:32:22;6.30;88.30
18694;DHT22;9477;51.414;10.362;2022-12-07T06:34:25;6.50;88.60
18694;DHT22;9477;51.414;10.362;2022-12-07T06:36:30;6.70;88.80
18694;DHT22;9477;51.414;10.362;2022-12-07T06:38:33;6.60;88.00
18694;DHT22;9477;51.414;10.362;2022-12-07T06:40:36;6.60;87.90
18694;DHT22;9477;51.414;10.362;2022-12-07T06:42:39;6.80;88.40
18694;DHT22;9477;51.414;10.362;2022-12-07T06:44:41;7.00;88.40
18694;DHT22;9477;51.414;10.362;2022-12-07T06:46:44;6.80;87.20
18694;DHT22;9477;51.414;10.362;2022-12-07T06:48:47;6.70;87.00
18694;DHT22;9477;51.414;10.362;2022-12-07T06:50:50;6.90;87.70
18694;DHT22;9477;51.414;10.362;2022-12-07T06:52:57;6.60;87.20
18694;DHT22;9477;51.414;10.362;2022-12-07T06:55:00;6.50;87.50
18694;DHT22;9477;51.414;10.362;2022-12-07T06:57:03;6.70;88.10
18694;DHT22;9477;51.414;10.362;2022-12-07T06:59:06;6.70;87.80
18694;DHT22;9477;51.414;10.362;2022-12-07T07:01:10;6.40;87.80
18694;DHT22;9477;51.414;10.362;2022-12-07T07:03:14;6.70;88.30
18694;DHT22;9477;51.414;10.362;2022-12-07T07:05:16;6.50;87.80
18694;DHT22;9477;51.414;10.362;2022-12-07T07:07:19;6.30;88.00
18694;DHT22;9477;51.414;10.362;2022-12-07T07:09:24;6.30;88.10
18694;DHT22;9477;51.414;10.362;2022-12-07T07:11:27;6.40;88.60
18694;DHT22;9477;51.414;10.362;2022-12-07T07:13:30;6.50;88.30
18694;DHT22;9477;51.414;10.362;2022-12-07T07:15:34;6.60;88.50
18694;DHT22;9477;51.414;10.362;2022-12-07T07:17:37;6.70;88.10
18694;DHT22;9477;51.414;10.362;2022-12-07T07:19:39;6.90;87.80
18694;DHT22;9477;51.414;10.362;2022-12-07T07:21:42;6.90;87.80
18694;DHT22;9477;51.414;10.362;2022-12-07T07:23:45;6.90;87.70
18694;DHT22;9477;51.414;10.362;2022-12-07T07:25:49;6.70;87.00
18694;DHT22;9477;51.414;10.362;2022-12-07T07:27:52;6.70;86.90
18694;DHT22;9477;51.414;10.362;2022-12-07T07:29:55;6.90;87.40
18694;DHT22;9477;51.414;10.362;2022-12-07T07:31:59;7.00;87.50
18694;DHT22;9477;51.414;10.362;2022-12-07T07:34:07;7.00;86.90
18694;DHT22;9477;51.414;10.362;2022-12-07T07:36:10;6.80;86.40
18694;DHT22;9477;51.414;10.362;2022-12-07T07:38:13;6.80;86.60
18694;DHT22;9477;51.414;10.362;2022-12-07T07:40:16;6.60;86.60
18694;DHT22;9477;51.414;10.362;2022-12-07T07:42:20;6.50;86.90
18694;DHT22;9477;51.414;10.362;2022-12-07T07:44:23;6.40;87.50
18694;DHT22;9477;51.414;10.362;2022-12-07T07:46:33;6.40;88.00
18694;DHT22;9477;51.414;10.362;2022-12-07T07:48:36;6.20;88.40
18694;DHT22;9477;51.414;10.362;2022-12-07T07:50:39;6.60;88.80
18694;DHT22;9477;51.414;10.362;2022-12-07T07:52:42;6.30;87.70
18694;DHT22;9477;51.414;10.362;2022-12-07T07:54:45;6.40;88.10
18694;DHT22;9477;51.414;10.362;2022-12-07T07:56:48;6.20;88.20
18694;DHT22;9477;51.414;10.362;2022-12-07T07:58:53;6.30;88.40
18694;DHT22;9477;51.414;10.362;2022-12-07T08:00:56;6.40;88.80
18694;DHT22;9477;51.414;10.362;2022-12-07T08:02:59;6.20;88.10
18694;DHT22;9477;51.414;10.362;2022-12-07T08:05:02;6.30;88.10
18694;DHT22;9477;51.414;10.362;2022-12-07T08:07:05;6.30;88.30
18694;DHT22;9477;51.414;10.362;2022-12-07T08:09:08;6.30;88.40
18694;DHT22;9477;51.414;10.362;2022-12-07T08:11:11;6.00;88.00
18694;DHT22;9477;51.414;10.362;2022-12-07T08:13:15;6.30;88.70
18694;DHT22;9477;51.414;10.362;2022-12-07T08:15:19;6.30;88.80
18694;DHT22;9477;51.414;10.362;2022-12-07T08:17:22;6.30;88.70
18694;DHT22;9477;51.414;10.362;2022-12-07T08:19:25;6.40;88.70
18694;DHT22;9477;51.414;10.362;2022-12-07T08:21:28;6.30;88.20
18694;DHT22;9477;51.414;10.362;2022-12-07T08:23:31;6.40;88.90
18694;DHT22;9477;51.414;10.362;2022-12-07T08:25:40;6.40;88.80
18694;DHT22;9477;51.414;10.362;2022-12-07T08:27:43;6.50;88.90
18694;DHT22;9477;51.414;10.362;2022-12-07T08:29:46;6.10;88.00
18694;DHT22;9477;51.414;10.362;2022-12-07T08:31:50;6.30;88.70
18694;DHT22;9477;51.414;10.362;2022-12-07T08:33:53;6.20;88.40
18694;DHT22;9477;51.414;10.362;2022-12-07T08:36:00;6.20;88.70
18694;DHT22;9477;51.414;10.362;2022-12-07T08:38:03;6.20;88.80
18694;DHT22;9477;51.414;10.362;2022-12-07T08:40:08;6.20;88.10
18694;DHT22;9477;51.414;10.362;2022-12-07T08:42:11;6.30;88.20
18694;DHT22;9477;51.414;10.362;2022-12-07T08:44:15;6.20;88.20
18694;DHT22;9477;51.414;10.362;2022-12-07T08:46:19;6.20;88.30
18694;DHT22;9477;51.414;10.362;2022-12-07T08:48:26;6.50;88.80
18694;DHT22;9477;51.414;10.362;2022-12-07T08:50:29;6.20;87.70
18694;DHT22;9477;51.414;10.362;2022-12-07T08:52:32;6.00;87.50
18694;DHT22;9477;51.414;10.362;2022-12-07T08:54:37;6.10;88.10
18694;DHT22;9477;51.414;10.362;2022-12-07T08:56:41;5.70;87.50
18694;DHT22;9477;51.414;10.362;2022-12-07T08:58:45;5.80;88.10
18694;DHT22;9477;51.414;10.362;2022-12-07T09:00:48;6.00;88.60
18694;DHT22;9477;51.414;10.362;2022-12-07T09:02:51;6.00;88.50
18694;DHT22;9477;51.414;10.362;2022-12-07T09:04:55;6.20;88.40
18694;DHT22;9477;51.414;10.362;2022-12-07T09:06:58;6.10;87.80
18694;DHT22;9477;51.414;10.362;2022-12-07T09:09:02;6.10;87.60
18694;DHT22;9477;51.414;10.362;2022-12-07T09:11:05;6.20;87.80
18694;DHT22;9477;51.414;10.362;2022-12-07T09:13:08;6.40;87.90
18694;DHT22;9477;51.414;10.362;2022-12-07T09:15:11;6.40;87.70
18694;DHT22;9477;51.414;10.362;2022-12-07T09:17:14;6.10;86.60
18694;DHT22;9477;51.414;10.362;2022-12-07T09:19:16;6.40;87.10
18694;DHT22;9477;51.414;10.362;2022-12-07T09:21:21;6.40;87.30
18694;DHT22;9477;51.414;10.362;2022-12-07T09:23:24;6.50;87.10
18694;DHT22;9477;51.414;10.362;2022-12-07T09:25:26;6.80;87.60
18694;DHT22;9477;51.414;10.362;2022-12-07T09:27:30;6.80;86.40
18694;DHT22;9477;51.414;10.362;2022-12-07T09:29:32;6.90;86.70
18694;DHT22;9477;51.414;10.362;2022-12-07T09:31:36;6.80;86.30
18694;DHT22;9477;51.414;10.362;2022-12-07T09:33:40;6.90;86.20
18694;DHT22;9477;51.414;10.362;2022-12-07T09:35:45;6.90;86.10
18694;DHT22;9477;51.414;10.362;2022-12-07T09:37:49;6.80;86.10
18694;DHT22;9477;51.414;10.362;2022-12-07T09:39:52;6.70;86.20
18694;DHT22;9477;51.414;10.362;2022-12-07T09:41:56;6.80;86.80
18694;DHT22;9477;51.414;10.362;2022-12-07T09:46:14;6.80;86.70
18694;DHT22;9477;51.414;10.362;2022-12-07T09:48:20;6.30;85.80
18694;DHT22;9477;51.414;10.362;2022-12-07T09:50:26;6.50;86.30
18694;DHT22;9477;51.414;10.362;2022-12-07T09:52:29;6.60;86.90
18694;DHT22;9477;51.414;10.362;2022-12-07T09:54:44;6.30;86.80
18694;DHT22;9477;51.414;10.362;2022-12-07T09:56:48;6.60;86.70
18694;DHT22;9477;51.414;10.362;2022-12-07T09:58:59;6.80;86.70
18694;DHT22;9477;51.414;10.362;2022-12-07T10:01:11;6.90;85.60
18694;DHT22;9477;51.414;10.362;2022-12-07T10:03:15;6.90;85.40
18694;DHT22;9477;51.414;10.362;2022-12-07T10:05:22;6.30;85.00
18694;DHT22;9477;51.414;10.362;2022-12-07T10:07:26;6.40;86.00
18694;DHT22;9477;51.414;10.362;2022-12-07T10:09:29;6.40;85.80
18694;DHT22;9477;51.414;10.362;2022-12-07T10:12:02;6.50;86.00
18694;DHT22;9477;51.414;10.362;2022-12-07T10:14:12;6.50;85.90
18694;DHT22;9477;51.414;10.362;2022-12-07T10:16:37;6.60;86.30
18694;DHT22;9477;51.414;10.362;2022-12-07T10:18:41;6.70;86.00
18694;DHT22;9477;51.414;10.362;2022-12-07T10:20:45;6.90;86.30
18694;DHT22;9477;51.414;10.362;2022-12-07T10:23:04;7.00;85.80
18694;DHT22;9477;51.414;10.362;2022-12-07T10:25:18;6.80;85.30
18694;DHT22;9477;51.414;10.362;2022-12-07T10:27:30;6.80;85.10
18694;DHT22;9477;51.414;10.362;2022-12-07T10:29:36;7.10;86.10
18694;DHT22;9477;51.414;10.362;2022-12-07T10:31:39;7.00;85.70
18694;DHT22;9477;51.414;10.362;2022-12-07T10:33:50;7.00;85.30
18694;DHT22;9477;51.414;10.362;2022-12-07T10:35:53;7.10;85.90
18694;DHT22;9477;51.414;10.362;2022-12-07T10:37:57;7.10;85.60
18694;DHT22;9477;51.414;10.362;2022-12-07T10:40:00;7.20;85.80
18694;DHT22;9477;51.414;10.362;2022-12-07T10:42:03;6.70;84.60
18694;DHT22;9477;51.414;10.362;2022-12-07T10:44:21;6.90;85.70
18694;DHT22;9477;51.414;10.362;2022-12-07T10:47:09;6.90;85.80
18694;DHT22;9477;51.414;10.362;2022-12-07T10:52:07;7.10;85.70
18694;DHT22;9477;51.414;10.362;2022-12-07T10:54:19;6.90;85.00
18694;DHT22;9477;51.414;10.362;2022-12-07T10:56:42;6.70;84.80
18694;DHT22;9477;51.414;10.362;2022-12-07T10:59:03;6.80;84.30
18694;DHT22;9477;51.414;10.362;2022-12-07T11:01:17;6.80;84.40
18694;DHT22;9477;51.414;10.362;2022-12-07T11:03:38;6.50;84.60
18694;DHT22;9477;51.414;10.362;2022-12-07T11:05:47;6.90;85.60
18694;DHT22;9477;51.414;10.362;2022-12-07T11:08:00;7.20;85.80
18694;DHT22;9477;51.414;10.362;2022-12-07T11:10:09;7.30;84.80
18694;DHT22;9477;51.414;10.362;2022-12-07T11:12:23;7.40;84.40
18694;DHT22;9477;51.414;10.362;2022-12-07T11:14:30;7.80;85.10
18694;DHT22;9477;51.414;10.362;2022-12-07T11:16:48;7.80;83.60
18694;DHT22;9477;51.414;10.362;2022-12-07T11:19:06;7.80;83.20
18694;DHT22;9477;51.414;10.362;2022-12-07T11:21:20;7.50;83.30
18694;DHT22;9477;51.414;10.362;2022-12-07T11:23:31;7.40;82.90
18694;DHT22;9477;51.414;10.362;2022-12-07T11:25:41;7.50;83.30
18694;DHT22;9477;51.414;10.362;2022-12-07T11:27:51;7.40;83.40
18694;DHT22;9477;51.414;10.362;2022-12-07T11:30:08;7.10;83.20
18694;DHT22;9477;51.414;10.362;2022-12-07T11:32:19;6.90;83.50
18694;DHT22;9477;51.414;10.362;2022-12-07T11:34:29;7.00;84.00
18694;DHT22;9477;51.414;10.362;2022-12-07T11:36:39;6.90;83.70
18694;DHT22;9477;51.414;10.362;2022-12-07T11:38:47;7.00;84.20
18694;DHT22;9477;51.414;10.362;2022-12-07T11:40:55;6.90;83.90
18694;DHT22;9477;51.414;10.362;2022-12-07T11:43:20;6.50;83.10
18694;DHT22;9477;51.414;10.362;2022-12-07T11:45:26;6.70;83.80
18694;DHT22;9477;51.414;10.362;2022-12-07T11:47:38;6.90;84.20
18694;DHT22;9477;51.414;10.362;2022-12-07T11:49:47;6.80;83.90
18694;DHT22;9477;51.414;10.362;2022-12-07T11:51:56;6.70;83.90
18694;DHT22;9477;51.414;10.362;2022-12-07T11:54:03;6.70;83.60
18694;DHT22;9477;51.414;10.362;2022-12-07T11:56:10;6.80;84.30
18694;DHT22;9477;51.414;10.362;2022-12-07T11:58:22;6.50;83.90
18694;DHT22;9477;51.414;10.362;2022-12-07T12:00:29;6.40;84.00
18694;DHT22;9477;51.414;10.362;2022-12-07T12:02:38;6.60;84.10
18694;DHT22;9477;51.414;10.362;2022-12-07T12:04:51;6.60;84.30
18694;DHT22;9477;51.414;10.362;2022-12-07T12:06:56;6.50;84.30
18694;DHT22;9477;51.414;10.362;2022-12-07T12:09:23;6.90;84.40
18694;DHT22;9477;51.414;10.362;2022-12-07T12:11:50;7.30;84.30
18694;DHT22;9477;51.414;10.362;2022-12-07T12:14:26;7.40;83.80
18694;DHT22;9477;51.414;10.362;2022-12-07T12:16:50;7.50;83.30
18694;DHT22;9477;51.414;10.362;2022-12-07T12:19:07;7.60;82.90
18694;DHT22;9477;51.414;10.362;2022-12-07T12:21:17;7.60;82.50
18694;DHT22;9477;51.414;10.362;2022-12-07T12:23:22;7.60;83.30
18694;DHT22;9477;51.414;10.362;2022-12-07T12:25:29;7.20;81.90
18694;DHT22;9477;51.414;10.362;2022-12-07T12:27:36;6.70;82.30
18694;DHT22;9477;51.414;10.362;2022-12-07T12:29:41;6.80;83.90
18694;DHT22;9477;51.414;10.362;2022-12-07T12:31:47;6.60;83.70
18694;DHT22;9477;51.414;10.362;2022-12-07T12:33:52;6.80;84.20
18694;DHT22;9477;51.414;10.362;2022-12-07T12:36:18;6.70;83.80
18694;DHT22;9477;51.414;10.362;2022-12-07T12:38:30;6.80;83.90
18694;DHT22;9477;51.414;10.362;2022-12-07T12:40:43;7.00;84.20
18694;DHT22;9477;51.414;10.362;2022-12-07T12:42:53;6.80;83.60
18694;DHT22;9477;51.414;10.362;2022-12-07T12:45:18;6.70;83.80
18694;DHT22;9477;51.414;10.362;2022-12-07T12:47:53;6.90;84.10
18694;DHT22;9477;51.414;10.362;2022-12-07T12:50:18;7.00;83.60
18694;DHT22;9477;51.414;10.362;2022-12-07T12:53:00;7.10;84.20
18694;DHT22;9477;51.414;10.362;2022-12-07T12:55:13;7.00;83.40
18694;DHT22;9477;51.414;10.362;2022-12-07T12:57:26;7.30;84.10
18694;DHT22;9477;51.414;10.362;2022-12-07T12:59:30;7.20;83.30
18694;DHT22;9477;51.414;10.362;2022-12-07T13:01:40;7.00;82.70
18694;DHT22;9477;51.414;10.362;2022-12-07T13:03:52;7.00;83.20
18694;DHT22;9477;51.414;10.362;2022-12-07T13:06:19;7.20;83.90
18694;DHT22;9477;51.414;10.362;2022-12-07T13:08:25;7.00;83.00
18694;DHT22;9477;51.414;10.362;2022-12-07T13:10:42;7.10;83.80
18694;DHT22;9477;51.414;10.362;2022-12-07T13:12:55;7.10;84.10
18694;DHT22;9477;51.414;10.362;2022-12-07T13:14:58;7.50;84.40
18694;DHT22;9477;51.414;10.362;2022-12-07T13:17:02;7.40;83.10
18694;DHT22;9477;51.414;10.362;2022-12-07T13:21:42;7.30;83.10
18694;DHT22;9477;51.414;10.362;2022-12-07T13:23:55;7.20;82.80
18694;DHT22;9477;51.414;10.362;2022-12-07T13:26:18;6.80;82.70
18694;DHT22;9477;51.414;10.362;2022-12-07T13:28:22;6.90;83.40
18694;DHT22;9477;51.414;10.362;2022-12-07T13:30:29;7.30;83.90
18694;DHT22;9477;51.414;10.362;2022-12-07T13:32:32;6.80;82.70
18694;DHT22;9477;51.414;10.362;2022-12-07T13:34:38;7.10;83.60
18694;DHT22;9477;51.414;10.362;2022-12-07T13:36:44;7.10;83.70
18694;DHT22;9477;51.414;10.362;2022-12-07T13:38:57;6.70;82.90
18694;DHT22;9477;51.414;10.362;2022-12-07T13:41:02;7.10;84.00